<?xml version="1.0" encoding="UTF-8" standalone="no" ?>
<gpx xmlns="http://www.topografix.com/GPX/1/1" xmlns:xsi="http://www.w3.org/2001/XMLSchema-instance" xsi:schemaLocation="http://www.topografix.com/GPX/1/1 http://www.topografix.com/GPX/1/1/gpx.xsd" version="1.1" creator="VisuGPX - https://www.visugpx.com">
  <metadata>
    <name>10-02-2012</name>
    <desc><![CDATA[Température:  -12° ]]></desc>
  </metadata>
  <wpt lat="45.37607" lon="3.74879">
    <ele>700.5</ele>
    <name><![CDATA[Start]]></name>
  </wpt>
  <wpt lat="45.37601" lon="3.74883">
    <ele>705.29998779297</ele>
    <name><![CDATA[Pause]]></name>
  </wpt>
  <wpt lat="45.38096" lon="3.74798">
    <ele>656.59997558594</ele>
    <name><![CDATA[Resume]]></name>
  </wpt>
  <wpt lat="45.38096" lon="3.74798">
    <ele>656.59997558594</ele>
    <name><![CDATA[End]]></name>
  </wpt>
  <trk>
    <name><![CDATA[10-02-2012_1]]></name>
    <trkseg>
      <trkpt lat="45.37607" lon="3.74879">
        <ele>700.5</ele>
        <time>2012-02-10T09:43:24Z</time>
      </trkpt>
      <trkpt lat="45.37601" lon="3.74883">
        <ele>705.29998779297</ele>
        <time>2012-02-10T09:43:49Z</time>
      </trkpt>
      <trkpt lat="45.37597" lon="3.74886">
        <ele>705.20001220703</ele>
        <time>2012-02-10T09:43:52Z</time>
      </trkpt>
      <trkpt lat="45.37593" lon="3.7489">
        <ele>705.29998779297</ele>
        <time>2012-02-10T09:43:53Z</time>
      </trkpt>
      <trkpt lat="45.37591" lon="3.74896">
        <ele>705.59997558594</ele>
        <time>2012-02-10T09:43:57Z</time>
      </trkpt>
      <trkpt lat="45.3759" lon="3.74903">
        <ele>705.40002441406</ele>
        <time>2012-02-10T09:43:59Z</time>
      </trkpt>
      <trkpt lat="45.3759" lon="3.7491">
        <ele>705.70001220703</ele>
        <time>2012-02-10T09:44:02Z</time>
      </trkpt>
      <trkpt lat="45.3759" lon="3.74921">
        <ele>701.70001220703</ele>
        <time>2012-02-10T09:44:06Z</time>
      </trkpt>
      <trkpt lat="45.37591" lon="3.74933">
        <ele>700.70001220703</ele>
        <time>2012-02-10T09:44:12Z</time>
      </trkpt>
      <trkpt lat="45.376" lon="3.74966">
        <ele>700.59997558594</ele>
        <time>2012-02-10T09:44:21Z</time>
      </trkpt>
      <trkpt lat="45.376" lon="3.74974">
        <ele>700.90002441406</ele>
        <time>2012-02-10T09:44:23Z</time>
      </trkpt>
      <trkpt lat="45.37598" lon="3.74982">
        <ele>701.5</ele>
        <time>2012-02-10T09:44:25Z</time>
      </trkpt>
      <trkpt lat="45.37598" lon="3.74988">
        <ele>702.09997558594</ele>
        <time>2012-02-10T09:44:28Z</time>
      </trkpt>
      <trkpt lat="45.37599" lon="3.74998">
        <ele>701.20001220703</ele>
        <time>2012-02-10T09:44:30Z</time>
      </trkpt>
      <trkpt lat="45.37599" lon="3.75006">
        <ele>700.29998779297</ele>
        <time>2012-02-10T09:44:32Z</time>
      </trkpt>
      <trkpt lat="45.37599" lon="3.75014">
        <ele>700.59997558594</ele>
        <time>2012-02-10T09:44:36Z</time>
      </trkpt>
      <trkpt lat="45.37597" lon="3.75023">
        <ele>701</ele>
        <time>2012-02-10T09:44:38Z</time>
      </trkpt>
      <trkpt lat="45.37601" lon="3.75037">
        <ele>701.79998779297</ele>
        <time>2012-02-10T09:44:43Z</time>
      </trkpt>
      <trkpt lat="45.37601" lon="3.75044">
        <ele>702.20001220703</ele>
        <time>2012-02-10T09:44:45Z</time>
      </trkpt>
      <trkpt lat="45.37602" lon="3.75051">
        <ele>701</ele>
        <time>2012-02-10T09:44:47Z</time>
      </trkpt>
      <trkpt lat="45.37605" lon="3.75058">
        <ele>700.29998779297</ele>
        <time>2012-02-10T09:44:50Z</time>
      </trkpt>
      <trkpt lat="45.37612" lon="3.75075">
        <ele>701.40002441406</ele>
        <time>2012-02-10T09:44:56Z</time>
      </trkpt>
      <trkpt lat="45.37633" lon="3.75088">
        <ele>704.5</ele>
        <time>2012-02-10T09:45:06Z</time>
      </trkpt>
      <trkpt lat="45.37643" lon="3.75098">
        <ele>706.40002441406</ele>
        <time>2012-02-10T09:45:12Z</time>
      </trkpt>
      <trkpt lat="45.37652" lon="3.75112">
        <ele>704.59997558594</ele>
        <time>2012-02-10T09:45:17Z</time>
      </trkpt>
      <trkpt lat="45.37642" lon="3.75118">
        <ele>701.29998779297</ele>
        <time>2012-02-10T09:45:20Z</time>
      </trkpt>
      <trkpt lat="45.37645" lon="3.75129">
        <ele>699</ele>
        <time>2012-02-10T09:45:24Z</time>
      </trkpt>
      <trkpt lat="45.37646" lon="3.75135">
        <ele>697</ele>
        <time>2012-02-10T09:45:26Z</time>
      </trkpt>
      <trkpt lat="45.37648" lon="3.75144">
        <ele>696.20001220703</ele>
        <time>2012-02-10T09:45:29Z</time>
      </trkpt>
      <trkpt lat="45.3765" lon="3.75151">
        <ele>696.40002441406</ele>
        <time>2012-02-10T09:45:31Z</time>
      </trkpt>
      <trkpt lat="45.3765" lon="3.7516">
        <ele>697.09997558594</ele>
        <time>2012-02-10T09:45:34Z</time>
      </trkpt>
      <trkpt lat="45.3765" lon="3.75174">
        <ele>696.40002441406</ele>
        <time>2012-02-10T09:45:39Z</time>
      </trkpt>
      <trkpt lat="45.3765" lon="3.75189">
        <ele>695.70001220703</ele>
        <time>2012-02-10T09:45:43Z</time>
      </trkpt>
      <trkpt lat="45.37652" lon="3.75202">
        <ele>695.5</ele>
        <time>2012-02-10T09:45:48Z</time>
      </trkpt>
      <trkpt lat="45.37651" lon="3.75211">
        <ele>694.79998779297</ele>
        <time>2012-02-10T09:45:52Z</time>
      </trkpt>
      <trkpt lat="45.37651" lon="3.75221">
        <ele>691.70001220703</ele>
        <time>2012-02-10T09:45:56Z</time>
      </trkpt>
      <trkpt lat="45.37651" lon="3.7524">
        <ele>691.79998779297</ele>
        <time>2012-02-10T09:46:04Z</time>
      </trkpt>
      <trkpt lat="45.37656" lon="3.7524">
        <ele>693.79998779297</ele>
        <time>2012-02-10T09:46:06Z</time>
      </trkpt>
      <trkpt lat="45.37664" lon="3.7524">
        <ele>693.5</ele>
        <time>2012-02-10T09:46:10Z</time>
      </trkpt>
      <trkpt lat="45.3769" lon="3.7522">
        <ele>692.79998779297</ele>
        <time>2012-02-10T09:46:22Z</time>
      </trkpt>
      <trkpt lat="45.37697" lon="3.75217">
        <ele>692.79998779297</ele>
        <time>2012-02-10T09:46:25Z</time>
      </trkpt>
      <trkpt lat="45.37702" lon="3.75212">
        <ele>692.70001220703</ele>
        <time>2012-02-10T09:46:27Z</time>
      </trkpt>
      <trkpt lat="45.3771" lon="3.75201">
        <ele>692.70001220703</ele>
        <time>2012-02-10T09:46:32Z</time>
      </trkpt>
      <trkpt lat="45.37714" lon="3.75195">
        <ele>692.59997558594</ele>
        <time>2012-02-10T09:46:35Z</time>
      </trkpt>
      <trkpt lat="45.37724" lon="3.75183">
        <ele>692.5</ele>
        <time>2012-02-10T09:46:39Z</time>
      </trkpt>
      <trkpt lat="45.37729" lon="3.75185">
        <ele>677.5</ele>
        <time>2012-02-10T09:46:47Z</time>
      </trkpt>
      <trkpt lat="45.37732" lon="3.75181">
        <ele>677.09997558594</ele>
        <time>2012-02-10T09:46:49Z</time>
      </trkpt>
      <trkpt lat="45.37739" lon="3.7517">
        <ele>676.59997558594</ele>
        <time>2012-02-10T09:46:52Z</time>
      </trkpt>
      <trkpt lat="45.37744" lon="3.75166">
        <ele>676.59997558594</ele>
        <time>2012-02-10T09:46:55Z</time>
      </trkpt>
      <trkpt lat="45.37763" lon="3.75145">
        <ele>676.70001220703</ele>
        <time>2012-02-10T09:47:02Z</time>
      </trkpt>
      <trkpt lat="45.37765" lon="3.75139">
        <ele>677.40002441406</ele>
        <time>2012-02-10T09:47:05Z</time>
      </trkpt>
      <trkpt lat="45.3777" lon="3.75131">
        <ele>677.20001220703</ele>
        <time>2012-02-10T09:47:08Z</time>
      </trkpt>
      <trkpt lat="45.37773" lon="3.75121">
        <ele>677.09997558594</ele>
        <time>2012-02-10T09:47:11Z</time>
      </trkpt>
      <trkpt lat="45.37777" lon="3.75115">
        <ele>677.09997558594</ele>
        <time>2012-02-10T09:47:14Z</time>
      </trkpt>
      <trkpt lat="45.3778" lon="3.75108">
        <ele>677.5</ele>
        <time>2012-02-10T09:47:16Z</time>
      </trkpt>
      <trkpt lat="45.37782" lon="3.75098">
        <ele>676.5</ele>
        <time>2012-02-10T09:47:18Z</time>
      </trkpt>
      <trkpt lat="45.37791" lon="3.75096">
        <ele>676.59997558594</ele>
        <time>2012-02-10T09:47:21Z</time>
      </trkpt>
      <trkpt lat="45.37797" lon="3.75093">
        <ele>676.40002441406</ele>
        <time>2012-02-10T09:47:24Z</time>
      </trkpt>
      <trkpt lat="45.37799" lon="3.75082">
        <ele>677.20001220703</ele>
        <time>2012-02-10T09:47:26Z</time>
      </trkpt>
      <trkpt lat="45.37805" lon="3.75073">
        <ele>677.29998779297</ele>
        <time>2012-02-10T09:47:30Z</time>
      </trkpt>
      <trkpt lat="45.37808" lon="3.75068">
        <ele>676.09997558594</ele>
        <time>2012-02-10T09:47:33Z</time>
      </trkpt>
      <trkpt lat="45.37812" lon="3.75062">
        <ele>675.40002441406</ele>
        <time>2012-02-10T09:47:36Z</time>
      </trkpt>
      <trkpt lat="45.37833" lon="3.75032">
        <ele>674.40002441406</ele>
        <time>2012-02-10T09:47:47Z</time>
      </trkpt>
      <trkpt lat="45.37841" lon="3.75027">
        <ele>669.90002441406</ele>
        <time>2012-02-10T09:47:50Z</time>
      </trkpt>
      <trkpt lat="45.37847" lon="3.75019">
        <ele>670.5</ele>
        <time>2012-02-10T09:47:55Z</time>
      </trkpt>
      <trkpt lat="45.3785" lon="3.75014">
        <ele>669.40002441406</ele>
        <time>2012-02-10T09:47:57Z</time>
      </trkpt>
      <trkpt lat="45.37854" lon="3.75009">
        <ele>668.90002441406</ele>
        <time>2012-02-10T09:47:59Z</time>
      </trkpt>
      <trkpt lat="45.37858" lon="3.75006">
        <ele>667.79998779297</ele>
        <time>2012-02-10T09:48:02Z</time>
      </trkpt>
      <trkpt lat="45.37861" lon="3.75001">
        <ele>667.29998779297</ele>
        <time>2012-02-10T09:48:04Z</time>
      </trkpt>
      <trkpt lat="45.37874" lon="3.74981">
        <ele>667.5</ele>
        <time>2012-02-10T09:48:13Z</time>
      </trkpt>
      <trkpt lat="45.37878" lon="3.74974">
        <ele>668.20001220703</ele>
        <time>2012-02-10T09:48:16Z</time>
      </trkpt>
      <trkpt lat="45.37887" lon="3.74962">
        <ele>670.79998779297</ele>
        <time>2012-02-10T09:48:20Z</time>
      </trkpt>
      <trkpt lat="45.37894" lon="3.74955">
        <ele>668.5</ele>
        <time>2012-02-10T09:48:25Z</time>
      </trkpt>
      <trkpt lat="45.37898" lon="3.74949">
        <ele>668.29998779297</ele>
        <time>2012-02-10T09:48:27Z</time>
      </trkpt>
      <trkpt lat="45.37904" lon="3.74948">
        <ele>669.09997558594</ele>
        <time>2012-02-10T09:48:29Z</time>
      </trkpt>
      <trkpt lat="45.37908" lon="3.74944">
        <ele>671.20001220703</ele>
        <time>2012-02-10T09:48:30Z</time>
      </trkpt>
      <trkpt lat="45.37912" lon="3.7494">
        <ele>671.20001220703</ele>
        <time>2012-02-10T09:48:32Z</time>
      </trkpt>
      <trkpt lat="45.37917" lon="3.74937">
        <ele>666.5</ele>
        <time>2012-02-10T09:48:37Z</time>
      </trkpt>
      <trkpt lat="45.37926" lon="3.74926">
        <ele>663.59997558594</ele>
        <time>2012-02-10T09:48:43Z</time>
      </trkpt>
      <trkpt lat="45.37938" lon="3.74909">
        <ele>665.79998779297</ele>
        <time>2012-02-10T09:48:48Z</time>
      </trkpt>
      <trkpt lat="45.37941" lon="3.74902">
        <ele>665.29998779297</ele>
        <time>2012-02-10T09:48:51Z</time>
      </trkpt>
      <trkpt lat="45.37946" lon="3.74898">
        <ele>664.29998779297</ele>
        <time>2012-02-10T09:48:54Z</time>
      </trkpt>
      <trkpt lat="45.37951" lon="3.74895">
        <ele>660.70001220703</ele>
        <time>2012-02-10T09:48:56Z</time>
      </trkpt>
      <trkpt lat="45.37958" lon="3.74889">
        <ele>659.20001220703</ele>
        <time>2012-02-10T09:49:00Z</time>
      </trkpt>
      <trkpt lat="45.37961" lon="3.74885">
        <ele>659.09997558594</ele>
        <time>2012-02-10T09:49:02Z</time>
      </trkpt>
      <trkpt lat="45.37968" lon="3.7488">
        <ele>659</ele>
        <time>2012-02-10T09:49:04Z</time>
      </trkpt>
      <trkpt lat="45.37974" lon="3.74876">
        <ele>659.5</ele>
        <time>2012-02-10T09:49:08Z</time>
      </trkpt>
      <trkpt lat="45.37982" lon="3.74872">
        <ele>660.5</ele>
        <time>2012-02-10T09:49:10Z</time>
      </trkpt>
      <trkpt lat="45.37988" lon="3.74868">
        <ele>664</ele>
        <time>2012-02-10T09:49:14Z</time>
      </trkpt>
      <trkpt lat="45.38013" lon="3.74859">
        <ele>663.5</ele>
        <time>2012-02-10T09:49:25Z</time>
      </trkpt>
      <trkpt lat="45.38039" lon="3.74845">
        <ele>663.70001220703</ele>
        <time>2012-02-10T09:49:35Z</time>
      </trkpt>
      <trkpt lat="45.38054" lon="3.74847">
        <ele>657.40002441406</ele>
        <time>2012-02-10T09:49:40Z</time>
      </trkpt>
      <trkpt lat="45.38061" lon="3.74848">
        <ele>658.59997558594</ele>
        <time>2012-02-10T09:49:44Z</time>
      </trkpt>
      <trkpt lat="45.38067" lon="3.74836">
        <ele>656</ele>
        <time>2012-02-10T09:49:49Z</time>
      </trkpt>
      <trkpt lat="45.3807" lon="3.74831">
        <ele>655.09997558594</ele>
        <time>2012-02-10T09:49:52Z</time>
      </trkpt>
      <trkpt lat="45.38075" lon="3.74824">
        <ele>654.59997558594</ele>
        <time>2012-02-10T09:49:55Z</time>
      </trkpt>
      <trkpt lat="45.38078" lon="3.74817">
        <ele>656.09997558594</ele>
        <time>2012-02-10T09:49:57Z</time>
      </trkpt>
      <trkpt lat="45.38086" lon="3.74805">
        <ele>657.40002441406</ele>
        <time>2012-02-10T09:50:02Z</time>
      </trkpt>
      <trkpt lat="45.38089" lon="3.74798">
        <ele>657.59997558594</ele>
        <time>2012-02-10T09:50:04Z</time>
      </trkpt>
      <trkpt lat="45.38095" lon="3.7479">
        <ele>657.59997558594</ele>
        <time>2012-02-10T09:50:08Z</time>
      </trkpt>
      <trkpt lat="45.38101" lon="3.74785">
        <ele>653.90002441406</ele>
        <time>2012-02-10T09:50:12Z</time>
      </trkpt>
      <trkpt lat="45.38105" lon="3.7478">
        <ele>652.29998779297</ele>
        <time>2012-02-10T09:50:15Z</time>
      </trkpt>
      <trkpt lat="45.38109" lon="3.74772">
        <ele>649.90002441406</ele>
        <time>2012-02-10T09:50:18Z</time>
      </trkpt>
      <trkpt lat="45.38117" lon="3.74766">
        <ele>650.90002441406</ele>
        <time>2012-02-10T09:50:22Z</time>
      </trkpt>
      <trkpt lat="45.3812" lon="3.74762">
        <ele>650.20001220703</ele>
        <time>2012-02-10T09:50:24Z</time>
      </trkpt>
      <trkpt lat="45.38128" lon="3.74751">
        <ele>646.5</ele>
        <time>2012-02-10T09:50:29Z</time>
      </trkpt>
      <trkpt lat="45.38129" lon="3.74744">
        <ele>647.09997558594</ele>
        <time>2012-02-10T09:50:31Z</time>
      </trkpt>
      <trkpt lat="45.38132" lon="3.74737">
        <ele>647.40002441406</ele>
        <time>2012-02-10T09:50:33Z</time>
      </trkpt>
      <trkpt lat="45.38136" lon="3.74732">
        <ele>647.40002441406</ele>
        <time>2012-02-10T09:50:35Z</time>
      </trkpt>
      <trkpt lat="45.38143" lon="3.74722">
        <ele>647.90002441406</ele>
        <time>2012-02-10T09:50:39Z</time>
      </trkpt>
      <trkpt lat="45.38146" lon="3.74717">
        <ele>648</ele>
        <time>2012-02-10T09:50:41Z</time>
      </trkpt>
      <trkpt lat="45.38149" lon="3.74711">
        <ele>648.09997558594</ele>
        <time>2012-02-10T09:50:43Z</time>
      </trkpt>
      <trkpt lat="45.38152" lon="3.74706">
        <ele>648.20001220703</ele>
        <time>2012-02-10T09:50:45Z</time>
      </trkpt>
      <trkpt lat="45.38169" lon="3.74684">
        <ele>648.70001220703</ele>
        <time>2012-02-10T09:50:55Z</time>
      </trkpt>
      <trkpt lat="45.38172" lon="3.74678">
        <ele>649.29998779297</ele>
        <time>2012-02-10T09:50:57Z</time>
      </trkpt>
      <trkpt lat="45.38175" lon="3.74673">
        <ele>649.09997558594</ele>
        <time>2012-02-10T09:50:59Z</time>
      </trkpt>
      <trkpt lat="45.38179" lon="3.74669">
        <ele>649.29998779297</ele>
        <time>2012-02-10T09:51:01Z</time>
      </trkpt>
      <trkpt lat="45.38184" lon="3.74662">
        <ele>647.5</ele>
        <time>2012-02-10T09:51:04Z</time>
      </trkpt>
      <trkpt lat="45.38189" lon="3.74652">
        <ele>648.5</ele>
        <time>2012-02-10T09:51:07Z</time>
      </trkpt>
      <trkpt lat="45.38193" lon="3.74645">
        <ele>649.29998779297</ele>
        <time>2012-02-10T09:51:10Z</time>
      </trkpt>
      <trkpt lat="45.38196" lon="3.74636">
        <ele>648.79998779297</ele>
        <time>2012-02-10T09:51:13Z</time>
      </trkpt>
      <trkpt lat="45.38202" lon="3.74628">
        <ele>648.90002441406</ele>
        <time>2012-02-10T09:51:17Z</time>
      </trkpt>
      <trkpt lat="45.38205" lon="3.74623">
        <ele>649.5</ele>
        <time>2012-02-10T09:51:19Z</time>
      </trkpt>
      <trkpt lat="45.38214" lon="3.7461">
        <ele>648.09997558594</ele>
        <time>2012-02-10T09:51:24Z</time>
      </trkpt>
      <trkpt lat="45.3822" lon="3.74599">
        <ele>649.40002441406</ele>
        <time>2012-02-10T09:51:29Z</time>
      </trkpt>
      <trkpt lat="45.38237" lon="3.74567">
        <ele>649</ele>
        <time>2012-02-10T09:51:39Z</time>
      </trkpt>
      <trkpt lat="45.3824" lon="3.7456">
        <ele>650.29998779297</ele>
        <time>2012-02-10T09:51:41Z</time>
      </trkpt>
      <trkpt lat="45.38245" lon="3.74554">
        <ele>650.09997558594</ele>
        <time>2012-02-10T09:51:45Z</time>
      </trkpt>
      <trkpt lat="45.38248" lon="3.74546">
        <ele>651.70001220703</ele>
        <time>2012-02-10T09:51:47Z</time>
      </trkpt>
      <trkpt lat="45.38264" lon="3.7453">
        <ele>651.59997558594</ele>
        <time>2012-02-10T09:51:56Z</time>
      </trkpt>
      <trkpt lat="45.38271" lon="3.74524">
        <ele>650.70001220703</ele>
        <time>2012-02-10T09:51:59Z</time>
      </trkpt>
      <trkpt lat="45.38275" lon="3.74517">
        <ele>650.70001220703</ele>
        <time>2012-02-10T09:52:01Z</time>
      </trkpt>
      <trkpt lat="45.38278" lon="3.74513">
        <ele>651.09997558594</ele>
        <time>2012-02-10T09:52:04Z</time>
      </trkpt>
      <trkpt lat="45.38284" lon="3.74511">
        <ele>648.40002441406</ele>
        <time>2012-02-10T09:52:08Z</time>
      </trkpt>
      <trkpt lat="45.38287" lon="3.74503">
        <ele>649.5</ele>
        <time>2012-02-10T09:52:10Z</time>
      </trkpt>
      <trkpt lat="45.38309" lon="3.74476">
        <ele>648</ele>
        <time>2012-02-10T09:52:22Z</time>
      </trkpt>
      <trkpt lat="45.38316" lon="3.74468">
        <ele>648.79998779297</ele>
        <time>2012-02-10T09:52:26Z</time>
      </trkpt>
      <trkpt lat="45.38319" lon="3.74463">
        <ele>650.09997558594</ele>
        <time>2012-02-10T09:52:28Z</time>
      </trkpt>
      <trkpt lat="45.38323" lon="3.74459">
        <ele>648.20001220703</ele>
        <time>2012-02-10T09:52:30Z</time>
      </trkpt>
      <trkpt lat="45.38329" lon="3.74454">
        <ele>647.79998779297</ele>
        <time>2012-02-10T09:52:33Z</time>
      </trkpt>
      <trkpt lat="45.38333" lon="3.74449">
        <ele>648.29998779297</ele>
        <time>2012-02-10T09:52:35Z</time>
      </trkpt>
      <trkpt lat="45.38337" lon="3.74444">
        <ele>648.79998779297</ele>
        <time>2012-02-10T09:52:37Z</time>
      </trkpt>
      <trkpt lat="45.38342" lon="3.7444">
        <ele>648.70001220703</ele>
        <time>2012-02-10T09:52:40Z</time>
      </trkpt>
      <trkpt lat="45.38347" lon="3.74436">
        <ele>647.90002441406</ele>
        <time>2012-02-10T09:52:42Z</time>
      </trkpt>
      <trkpt lat="45.38355" lon="3.74428">
        <ele>648.20001220703</ele>
        <time>2012-02-10T09:52:46Z</time>
      </trkpt>
      <trkpt lat="45.3836" lon="3.74424">
        <ele>648.59997558594</ele>
        <time>2012-02-10T09:52:48Z</time>
      </trkpt>
      <trkpt lat="45.38365" lon="3.7442">
        <ele>649</ele>
        <time>2012-02-10T09:52:51Z</time>
      </trkpt>
      <trkpt lat="45.38369" lon="3.74417">
        <ele>648</ele>
        <time>2012-02-10T09:52:53Z</time>
      </trkpt>
      <trkpt lat="45.38389" lon="3.744">
        <ele>648.5</ele>
        <time>2012-02-10T09:53:02Z</time>
      </trkpt>
      <trkpt lat="45.38392" lon="3.74396">
        <ele>648.29998779297</ele>
        <time>2012-02-10T09:53:04Z</time>
      </trkpt>
      <trkpt lat="45.38397" lon="3.74394">
        <ele>648.40002441406</ele>
        <time>2012-02-10T09:53:06Z</time>
      </trkpt>
      <trkpt lat="45.38438" lon="3.74373">
        <ele>649.79998779297</ele>
        <time>2012-02-10T09:53:24Z</time>
      </trkpt>
      <trkpt lat="45.38445" lon="3.7437">
        <ele>650.59997558594</ele>
        <time>2012-02-10T09:53:26Z</time>
      </trkpt>
      <trkpt lat="45.38449" lon="3.74368">
        <ele>643.79998779297</ele>
        <time>2012-02-10T09:53:31Z</time>
      </trkpt>
      <trkpt lat="45.38461" lon="3.74357">
        <ele>643.09997558594</ele>
        <time>2012-02-10T09:53:35Z</time>
      </trkpt>
      <trkpt lat="45.38468" lon="3.74359">
        <ele>644.40002441406</ele>
        <time>2012-02-10T09:53:39Z</time>
      </trkpt>
      <trkpt lat="45.38474" lon="3.74359">
        <ele>644.29998779297</ele>
        <time>2012-02-10T09:53:41Z</time>
      </trkpt>
      <trkpt lat="45.3848" lon="3.74357">
        <ele>644.5</ele>
        <time>2012-02-10T09:53:44Z</time>
      </trkpt>
      <trkpt lat="45.38488" lon="3.74355">
        <ele>647.40002441406</ele>
        <time>2012-02-10T09:53:48Z</time>
      </trkpt>
      <trkpt lat="45.38822" lon="3.74363">
        <ele>640.29998779297</ele>
        <time>2012-02-10T09:56:15Z</time>
      </trkpt>
      <trkpt lat="45.38823" lon="3.74372">
        <ele>640.88940429688</ele>
        <time>2012-02-10T09:56:16Z</time>
      </trkpt>
      <trkpt lat="45.38817" lon="3.74387">
        <ele>643.40002441406</ele>
        <time>2012-02-10T09:56:20Z</time>
      </trkpt>
      <trkpt lat="45.38814" lon="3.74391">
        <ele>644.01617431641</ele>
        <time>2012-02-10T09:56:21Z</time>
      </trkpt>
      <trkpt lat="45.3881" lon="3.744">
        <ele>643</ele>
        <time>2012-02-10T09:56:24Z</time>
      </trkpt>
      <trkpt lat="45.38804" lon="3.74405">
        <ele>644.5</ele>
        <time>2012-02-10T09:56:27Z</time>
      </trkpt>
      <trkpt lat="45.38799" lon="3.7441">
        <ele>645.20001220703</ele>
        <time>2012-02-10T09:56:29Z</time>
      </trkpt>
      <trkpt lat="45.38793" lon="3.74412">
        <ele>644.59997558594</ele>
        <time>2012-02-10T09:56:32Z</time>
      </trkpt>
      <trkpt lat="45.38777" lon="3.74429">
        <ele>645.59997558594</ele>
        <time>2012-02-10T09:56:40Z</time>
      </trkpt>
      <trkpt lat="45.38771" lon="3.74428">
        <ele>648.29998779297</ele>
        <time>2012-02-10T09:56:42Z</time>
      </trkpt>
      <trkpt lat="45.38767" lon="3.74432">
        <ele>648.79998779297</ele>
        <time>2012-02-10T09:56:44Z</time>
      </trkpt>
      <trkpt lat="45.38759" lon="3.74438">
        <ele>644.90002441406</ele>
        <time>2012-02-10T09:56:48Z</time>
      </trkpt>
      <trkpt lat="45.38744" lon="3.74447">
        <ele>645.20001220703</ele>
        <time>2012-02-10T09:56:57Z</time>
      </trkpt>
      <trkpt lat="45.38727" lon="3.74465">
        <ele>645</ele>
        <time>2012-02-10T09:57:05Z</time>
      </trkpt>
      <trkpt lat="45.38718" lon="3.74471">
        <ele>647.40002441406</ele>
        <time>2012-02-10T09:57:09Z</time>
      </trkpt>
      <trkpt lat="45.38711" lon="3.74473">
        <ele>646.90002441406</ele>
        <time>2012-02-10T09:57:11Z</time>
      </trkpt>
      <trkpt lat="45.38704" lon="3.74483">
        <ele>646.90002441406</ele>
        <time>2012-02-10T09:57:15Z</time>
      </trkpt>
      <trkpt lat="45.38699" lon="3.74487">
        <ele>649.20001220703</ele>
        <time>2012-02-10T09:57:17Z</time>
      </trkpt>
      <trkpt lat="45.38692" lon="3.74486">
        <ele>645</ele>
        <time>2012-02-10T09:57:21Z</time>
      </trkpt>
      <trkpt lat="45.38688" lon="3.7449">
        <ele>646.09997558594</ele>
        <time>2012-02-10T09:57:23Z</time>
      </trkpt>
      <trkpt lat="45.38684" lon="3.74493">
        <ele>645.40002441406</ele>
        <time>2012-02-10T09:57:25Z</time>
      </trkpt>
      <trkpt lat="45.38679" lon="3.74499">
        <ele>647.90002441406</ele>
        <time>2012-02-10T09:57:27Z</time>
      </trkpt>
      <trkpt lat="45.38673" lon="3.74509">
        <ele>647.40002441406</ele>
        <time>2012-02-10T09:57:31Z</time>
      </trkpt>
      <trkpt lat="45.38663" lon="3.74508">
        <ele>646.09997558594</ele>
        <time>2012-02-10T09:57:36Z</time>
      </trkpt>
      <trkpt lat="45.38659" lon="3.74512">
        <ele>645.40002441406</ele>
        <time>2012-02-10T09:57:38Z</time>
      </trkpt>
      <trkpt lat="45.38656" lon="3.7452">
        <ele>644.90002441406</ele>
        <time>2012-02-10T09:57:40Z</time>
      </trkpt>
      <trkpt lat="45.3865" lon="3.74528">
        <ele>645.59997558594</ele>
        <time>2012-02-10T09:57:43Z</time>
      </trkpt>
      <trkpt lat="45.38633" lon="3.74549">
        <ele>643.59997558594</ele>
        <time>2012-02-10T09:57:53Z</time>
      </trkpt>
      <trkpt lat="45.38629" lon="3.74552">
        <ele>643.20001220703</ele>
        <time>2012-02-10T09:57:55Z</time>
      </trkpt>
      <trkpt lat="45.38599" lon="3.74608">
        <ele>645.5</ele>
        <time>2012-02-10T09:58:16Z</time>
      </trkpt>
      <trkpt lat="45.38593" lon="3.74619">
        <ele>644.70001220703</ele>
        <time>2012-02-10T09:58:20Z</time>
      </trkpt>
      <trkpt lat="45.38584" lon="3.74632">
        <ele>646</ele>
        <time>2012-02-10T09:58:25Z</time>
      </trkpt>
      <trkpt lat="45.3858" lon="3.74639">
        <ele>646.09997558594</ele>
        <time>2012-02-10T09:58:28Z</time>
      </trkpt>
      <trkpt lat="45.38575" lon="3.74645">
        <ele>646.09997558594</ele>
        <time>2012-02-10T09:58:31Z</time>
      </trkpt>
      <trkpt lat="45.38551" lon="3.74688">
        <ele>647</ele>
        <time>2012-02-10T09:58:45Z</time>
      </trkpt>
      <trkpt lat="45.3854" lon="3.74711">
        <ele>647.29998779297</ele>
        <time>2012-02-10T09:58:52Z</time>
      </trkpt>
      <trkpt lat="45.38538" lon="3.74719">
        <ele>646.70001220703</ele>
        <time>2012-02-10T09:58:54Z</time>
      </trkpt>
      <trkpt lat="45.38536" lon="3.74725">
        <ele>648.5</ele>
        <time>2012-02-10T09:58:56Z</time>
      </trkpt>
      <trkpt lat="45.38532" lon="3.74731">
        <ele>650.20001220703</ele>
        <time>2012-02-10T09:58:58Z</time>
      </trkpt>
      <trkpt lat="45.38527" lon="3.74738">
        <ele>651.20001220703</ele>
        <time>2012-02-10T09:59:02Z</time>
      </trkpt>
      <trkpt lat="45.38521" lon="3.74744">
        <ele>646.79998779297</ele>
        <time>2012-02-10T09:59:06Z</time>
      </trkpt>
      <trkpt lat="45.38517" lon="3.74751">
        <ele>647.29998779297</ele>
        <time>2012-02-10T09:59:09Z</time>
      </trkpt>
      <trkpt lat="45.38513" lon="3.74758">
        <ele>647.29998779297</ele>
        <time>2012-02-10T09:59:12Z</time>
      </trkpt>
      <trkpt lat="45.38509" lon="3.74765">
        <ele>649.29998779297</ele>
        <time>2012-02-10T09:59:14Z</time>
      </trkpt>
      <trkpt lat="45.38493" lon="3.74784">
        <ele>649.20001220703</ele>
        <time>2012-02-10T09:59:24Z</time>
      </trkpt>
      <trkpt lat="45.38491" lon="3.7479">
        <ele>647.5</ele>
        <time>2012-02-10T09:59:27Z</time>
      </trkpt>
      <trkpt lat="45.38489" lon="3.74796">
        <ele>648.70001220703</ele>
        <time>2012-02-10T09:59:30Z</time>
      </trkpt>
      <trkpt lat="45.38486" lon="3.74805">
        <ele>648.40002441406</ele>
        <time>2012-02-10T09:59:35Z</time>
      </trkpt>
      <trkpt lat="45.38483" lon="3.7481">
        <ele>646.90002441406</ele>
        <time>2012-02-10T09:59:39Z</time>
      </trkpt>
      <trkpt lat="45.3848" lon="3.74815">
        <ele>647.79998779297</ele>
        <time>2012-02-10T09:59:43Z</time>
      </trkpt>
      <trkpt lat="45.38477" lon="3.74822">
        <ele>648.59997558594</ele>
        <time>2012-02-10T09:59:47Z</time>
      </trkpt>
      <trkpt lat="45.38474" lon="3.74829">
        <ele>649.79998779297</ele>
        <time>2012-02-10T09:59:52Z</time>
      </trkpt>
      <trkpt lat="45.38458" lon="3.74851">
        <ele>652</ele>
        <time>2012-02-10T10:00:04Z</time>
      </trkpt>
      <trkpt lat="45.38454" lon="3.74857">
        <ele>651.59997558594</ele>
        <time>2012-02-10T10:00:07Z</time>
      </trkpt>
      <trkpt lat="45.38446" lon="3.74875">
        <ele>647.90002441406</ele>
        <time>2012-02-10T10:00:13Z</time>
      </trkpt>
      <trkpt lat="45.3844" lon="3.74875">
        <ele>645.59997558594</ele>
        <time>2012-02-10T10:00:15Z</time>
      </trkpt>
      <trkpt lat="45.38439" lon="3.74881">
        <ele>645.59997558594</ele>
        <time>2012-02-10T10:00:17Z</time>
      </trkpt>
      <trkpt lat="45.38436" lon="3.74888">
        <ele>645</ele>
        <time>2012-02-10T10:00:19Z</time>
      </trkpt>
      <trkpt lat="45.38434" lon="3.74895">
        <ele>644.40002441406</ele>
        <time>2012-02-10T10:00:21Z</time>
      </trkpt>
      <trkpt lat="45.38432" lon="3.74901">
        <ele>644</ele>
        <time>2012-02-10T10:00:23Z</time>
      </trkpt>
      <trkpt lat="45.38423" lon="3.74907">
        <ele>643.70001220703</ele>
        <time>2012-02-10T10:00:27Z</time>
      </trkpt>
      <trkpt lat="45.38419" lon="3.74912">
        <ele>642.79998779297</ele>
        <time>2012-02-10T10:00:29Z</time>
      </trkpt>
      <trkpt lat="45.38414" lon="3.74919">
        <ele>643.09997558594</ele>
        <time>2012-02-10T10:00:32Z</time>
      </trkpt>
      <trkpt lat="45.38411" lon="3.74933">
        <ele>641.90002441406</ele>
        <time>2012-02-10T10:00:36Z</time>
      </trkpt>
      <trkpt lat="45.38403" lon="3.74932">
        <ele>636.20001220703</ele>
        <time>2012-02-10T10:00:37Z</time>
      </trkpt>
      <trkpt lat="45.38404" lon="3.74939">
        <ele>642.5</ele>
        <time>2012-02-10T10:00:40Z</time>
      </trkpt>
      <trkpt lat="45.38402" lon="3.74946">
        <ele>643.70001220703</ele>
        <time>2012-02-10T10:00:42Z</time>
      </trkpt>
      <trkpt lat="45.38393" lon="3.74971">
        <ele>650.20001220703</ele>
        <time>2012-02-10T10:00:51Z</time>
      </trkpt>
      <trkpt lat="45.38388" lon="3.74974">
        <ele>647.79998779297</ele>
        <time>2012-02-10T10:00:55Z</time>
      </trkpt>
      <trkpt lat="45.38383" lon="3.74982">
        <ele>644.20001220703</ele>
        <time>2012-02-10T10:00:58Z</time>
      </trkpt>
      <trkpt lat="45.38366" lon="3.74998">
        <ele>643.29998779297</ele>
        <time>2012-02-10T10:01:08Z</time>
      </trkpt>
      <trkpt lat="45.38361" lon="3.75">
        <ele>646</ele>
        <time>2012-02-10T10:01:10Z</time>
      </trkpt>
      <trkpt lat="45.38355" lon="3.74997">
        <ele>647.20001220703</ele>
        <time>2012-02-10T10:01:12Z</time>
      </trkpt>
      <trkpt lat="45.3835" lon="3.74994">
        <ele>647.90002441406</ele>
        <time>2012-02-10T10:01:14Z</time>
      </trkpt>
      <trkpt lat="45.38345" lon="3.74993">
        <ele>647.59997558594</ele>
        <time>2012-02-10T10:01:17Z</time>
      </trkpt>
      <trkpt lat="45.38341" lon="3.7499">
        <ele>648.20001220703</ele>
        <time>2012-02-10T10:01:19Z</time>
      </trkpt>
      <trkpt lat="45.38335" lon="3.74987">
        <ele>649.20001220703</ele>
        <time>2012-02-10T10:01:21Z</time>
      </trkpt>
      <trkpt lat="45.3833" lon="3.74986">
        <ele>647.5</ele>
        <time>2012-02-10T10:01:25Z</time>
      </trkpt>
      <trkpt lat="45.38323" lon="3.74986">
        <ele>648.29998779297</ele>
        <time>2012-02-10T10:01:28Z</time>
      </trkpt>
      <trkpt lat="45.38318" lon="3.74985">
        <ele>650.40002441406</ele>
        <time>2012-02-10T10:01:30Z</time>
      </trkpt>
      <trkpt lat="45.38313" lon="3.74985">
        <ele>650.90002441406</ele>
        <time>2012-02-10T10:01:32Z</time>
      </trkpt>
      <trkpt lat="45.38292" lon="3.74991">
        <ele>654.09997558594</ele>
        <time>2012-02-10T10:01:40Z</time>
      </trkpt>
      <trkpt lat="45.38286" lon="3.74997">
        <ele>656.09997558594</ele>
        <time>2012-02-10T10:01:45Z</time>
      </trkpt>
      <trkpt lat="45.3828" lon="3.75">
        <ele>654</ele>
        <time>2012-02-10T10:01:49Z</time>
      </trkpt>
      <trkpt lat="45.38277" lon="3.75005">
        <ele>652.59997558594</ele>
        <time>2012-02-10T10:01:51Z</time>
      </trkpt>
      <trkpt lat="45.38273" lon="3.75012">
        <ele>650</ele>
        <time>2012-02-10T10:01:54Z</time>
      </trkpt>
      <trkpt lat="45.38268" lon="3.75017">
        <ele>651</ele>
        <time>2012-02-10T10:01:56Z</time>
      </trkpt>
      <trkpt lat="45.38263" lon="3.75019">
        <ele>651.79998779297</ele>
        <time>2012-02-10T10:01:58Z</time>
      </trkpt>
      <trkpt lat="45.38245" lon="3.75019">
        <ele>648.29998779297</ele>
        <time>2012-02-10T10:02:06Z</time>
      </trkpt>
      <trkpt lat="45.3824" lon="3.75014">
        <ele>647.20001220703</ele>
        <time>2012-02-10T10:02:09Z</time>
      </trkpt>
      <trkpt lat="45.38237" lon="3.75007">
        <ele>646.09997558594</ele>
        <time>2012-02-10T10:02:12Z</time>
      </trkpt>
      <trkpt lat="45.38232" lon="3.74996">
        <ele>647.70001220703</ele>
        <time>2012-02-10T10:02:16Z</time>
      </trkpt>
      <trkpt lat="45.38229" lon="3.74988">
        <ele>647.59997558594</ele>
        <time>2012-02-10T10:02:19Z</time>
      </trkpt>
      <trkpt lat="45.38228" lon="3.74981">
        <ele>645.40002441406</ele>
        <time>2012-02-10T10:02:22Z</time>
      </trkpt>
      <trkpt lat="45.38225" lon="3.74975">
        <ele>644</ele>
        <time>2012-02-10T10:02:24Z</time>
      </trkpt>
      <trkpt lat="45.38221" lon="3.74969">
        <ele>644.09997558594</ele>
        <time>2012-02-10T10:02:26Z</time>
      </trkpt>
      <trkpt lat="45.38217" lon="3.74965">
        <ele>645.29998779297</ele>
        <time>2012-02-10T10:02:28Z</time>
      </trkpt>
      <trkpt lat="45.38214" lon="3.74961">
        <ele>645.20001220703</ele>
        <time>2012-02-10T10:02:30Z</time>
      </trkpt>
      <trkpt lat="45.3821" lon="3.74956">
        <ele>647.29998779297</ele>
        <time>2012-02-10T10:02:32Z</time>
      </trkpt>
      <trkpt lat="45.38205" lon="3.74951">
        <ele>647.20001220703</ele>
        <time>2012-02-10T10:02:35Z</time>
      </trkpt>
      <trkpt lat="45.382" lon="3.74948">
        <ele>647.09997558594</ele>
        <time>2012-02-10T10:02:38Z</time>
      </trkpt>
      <trkpt lat="45.38195" lon="3.74944">
        <ele>650.29998779297</ele>
        <time>2012-02-10T10:02:40Z</time>
      </trkpt>
      <trkpt lat="45.38192" lon="3.74939">
        <ele>650.90002441406</ele>
        <time>2012-02-10T10:02:42Z</time>
      </trkpt>
      <trkpt lat="45.38184" lon="3.74927">
        <ele>653.79998779297</ele>
        <time>2012-02-10T10:02:46Z</time>
      </trkpt>
      <trkpt lat="45.38179" lon="3.74924">
        <ele>653.79998779297</ele>
        <time>2012-02-10T10:02:49Z</time>
      </trkpt>
      <trkpt lat="45.38175" lon="3.74921">
        <ele>656.79998779297</ele>
        <time>2012-02-10T10:02:52Z</time>
      </trkpt>
      <trkpt lat="45.3817" lon="3.74918">
        <ele>657.70001220703</ele>
        <time>2012-02-10T10:02:54Z</time>
      </trkpt>
      <trkpt lat="45.38165" lon="3.74915">
        <ele>652.70001220703</ele>
        <time>2012-02-10T10:02:57Z</time>
      </trkpt>
      <trkpt lat="45.3816" lon="3.7491">
        <ele>652.29998779297</ele>
        <time>2012-02-10T10:03:00Z</time>
      </trkpt>
      <trkpt lat="45.38154" lon="3.74907">
        <ele>652.40002441406</ele>
        <time>2012-02-10T10:03:03Z</time>
      </trkpt>
      <trkpt lat="45.38113" lon="3.74785">
        <ele>655.79998779297</ele>
        <time>2012-02-10T10:04:28Z</time>
      </trkpt>
      <trkpt lat="45.38116" lon="3.7478">
        <ele>652.40002441406</ele>
        <time>2012-02-10T10:04:31Z</time>
      </trkpt>
      <trkpt lat="45.3812" lon="3.74772">
        <ele>655.29998779297</ele>
        <time>2012-02-10T10:04:34Z</time>
      </trkpt>
      <trkpt lat="45.38116" lon="3.74771">
        <ele>656.20001220703</ele>
        <time>2012-02-10T10:04:37Z</time>
      </trkpt>
      <trkpt lat="45.3811" lon="3.74776">
        <ele>655.79998779297</ele>
        <time>2012-02-10T10:04:40Z</time>
      </trkpt>
      <trkpt lat="45.38106" lon="3.74782">
        <ele>657</ele>
        <time>2012-02-10T10:04:43Z</time>
      </trkpt>
      <trkpt lat="45.38104" lon="3.74787">
        <ele>656.59997558594</ele>
        <time>2012-02-10T10:04:45Z</time>
      </trkpt>
      <trkpt lat="45.38099" lon="3.74793">
        <ele>656.70001220703</ele>
        <time>2012-02-10T10:04:48Z</time>
      </trkpt>
      <trkpt lat="45.38096" lon="3.74798">
        <ele>656.59997558594</ele>
        <time>2012-02-10T10:04:50Z</time>
      </trkpt>
    </trkseg>
  </trk>
</gpx>